createdAt,value
2019-06-20T00:00:28.620Z,76.49
2019-06-20T00:03:43.866Z,77.59
2019-06-20T00:06:59.457Z,79.26
2019-06-20T00:10:14.706Z,79.34
2019-06-20T00:13:31.033Z,80.39
2019-06-20T00:16:46.500Z,81.44
2019-06-20T00:20:01.869Z,82.37
2019-06-20T00:23:16.985Z,82.10
2019-06-20T00:26:32.447Z,83.01
2019-06-20T00:29:47.963Z,83.15
2019-06-20T00:33:03.191Z,83.18
2019-06-20T00:36:18.310Z,82.84
2019-06-20T00:39:33.672Z,82.32
2019-06-20T00:42:48.771Z,82.27
2019-06-20T00:46:05.056Z,82.19
2019-06-20T00:49:20.148Z,82.12
2019-06-20T00:52:38.105Z,81.88
2019-06-20T00:55:53.239Z,82.21
2019-06-20T00:59:08.723Z,82.16
2019-06-20T01:02:24.059Z,82.02
2019-06-20T01:05:39.331Z,81.79
2019-06-20T01:08:54.423Z,82.00
2019-06-20T01:12:09.694Z,81.87
2019-06-20T01:15:24.930Z,81.65
2019-06-20T01:18:40.654Z,81.57
2019-06-20T01:21:56.876Z,81.40
2019-06-20T01:25:12.829Z,81.09
2019-06-20T01:28:28.302Z,81.42
2019-06-20T01:31:43.174Z,81.67
2019-06-20T01:34:58.659Z,81.70
2019-06-20T01:38:15.105Z,81.52
2019-06-20T01:41:30.563Z,81.93
2019-06-20T01:44:45.944Z,81.95
2019-06-20T01:48:01.280Z,81.72
2019-06-20T01:51:16.426Z,81.92
2019-06-20T01:54:31.831Z,81.72
2019-06-20T01:57:47.128Z,81.81
2019-06-20T02:01:02.867Z,81.89
2019-06-20T02:04:18.965Z,81.78
2019-06-20T02:07:34.078Z,81.85
2019-06-20T02:10:49.411Z,81.69
2019-06-20T02:14:07.445Z,81.74
2019-06-20T02:17:21.724Z,81.88
2019-06-20T02:20:37.919Z,81.97
2019-06-20T02:23:53.423Z,82.13
2019-06-20T02:27:09.490Z,82.20
2019-06-20T02:30:24.605Z,82.36
2019-06-20T02:33:40.206Z,82.18
2019-06-20T02:36:55.428Z,81.79
2019-06-20T02:40:11.529Z,82.27
2019-06-20T02:43:26.527Z,82.18
2019-06-20T02:46:42.975Z,82.09
2019-06-20T02:49:58.332Z,82.06
2019-06-20T02:53:13.931Z,81.97
2019-06-20T02:56:29.293Z,82.44
2019-06-20T02:59:45.833Z,82.31
2019-06-20T03:03:01.345Z,82.36
2019-06-20T03:06:17.636Z,82.27
2019-06-20T03:09:32.778Z,81.88
2019-06-20T03:12:48.960Z,82.26
2019-06-20T03:16:04.097Z,82.26
2019-06-20T03:19:19.474Z,82.36
2019-06-20T03:22:34.824Z,82.62
2019-06-20T03:25:49.952Z,82.44
2019-06-20T03:29:04.948Z,82.09
2019-06-20T03:32:19.962Z,82.54
2019-06-20T03:35:35.315Z,82.64
2019-06-20T03:38:51.883Z,82.56
2019-06-20T03:42:07.112Z,82.61
2019-06-20T03:45:22.454Z,82.64
2019-06-20T03:48:37.598Z,82.70
2019-06-20T03:51:52.605Z,82.53
2019-06-20T03:55:07.837Z,82.68
2019-06-20T03:58:23.561Z,83.05
2019-06-20T04:01:38.662Z,83.30
2019-06-20T04:04:53.805Z,82.95
2019-06-20T04:08:09.524Z,83.06
2019-06-20T04:11:25.852Z,83.03
2019-06-20T04:14:40.954Z,83.17
2019-06-20T04:17:55.983Z,83.43
2019-06-20T04:21:11.580Z,83.56
2019-06-20T04:24:28.045Z,83.42
2019-06-20T04:27:43.832Z,83.60
2019-06-20T04:31:00.274Z,83.79
2019-06-20T04:34:16.486Z,84.29
2019-06-20T04:37:31.837Z,83.80
2019-06-20T04:40:47.828Z,84.02
2019-06-20T04:44:03.429Z,84.10
2019-06-20T04:47:18.666Z,83.91
2019-06-20T04:50:34.330Z,84.37
2019-06-20T04:53:49.983Z,84.46
2019-06-20T04:57:05.204Z,84.93
2019-06-20T05:00:20.481Z,85.13
2019-06-20T05:03:35.950Z,85.47
2019-06-20T05:06:54.794Z,85.77
2019-06-20T05:10:10.530Z,85.49
2019-06-20T05:16:47.091Z,85.57
2019-06-20T05:20:05.237Z,85.66
2019-06-20T05:23:20.720Z,85.22
2019-06-20T05:26:35.815Z,85.05
2019-06-20T05:29:51.199Z,85.49
2019-06-20T05:33:06.700Z,84.84
2019-06-20T05:36:22.405Z,84.56
2019-06-20T05:39:37.641Z,84.97
2019-06-20T05:42:53.246Z,84.49
2019-06-20T05:46:11.148Z,84.00
2019-06-20T05:49:26.607Z,83.07
2019-06-20T05:52:46.416Z,82.76
2019-06-20T05:56:02.509Z,82.44
2019-06-20T05:59:18.585Z,82.27
2019-06-20T06:02:33.914Z,82.67
2019-06-20T06:05:49.065Z,82.10
2019-06-20T06:09:05.514Z,82.00
2019-06-20T06:12:20.979Z,82.11
2019-06-20T06:15:36.321Z,82.01
2019-06-20T06:18:51.836Z,81.36
2019-06-20T06:22:07.429Z,81.67
2019-06-20T06:25:22.770Z,79.86
2019-06-20T06:28:38.004Z,80.76
2019-06-20T06:31:54.102Z,80.26
2019-06-20T06:35:09.952Z,80.14
2019-06-20T06:38:25.890Z,80.70
2019-06-20T06:41:41.326Z,79.74
2019-06-20T06:44:56.399Z,79.53
2019-06-20T06:48:12.114Z,79.60
2019-06-20T06:51:27.363Z,78.72
2019-06-20T06:54:42.605Z,78.26
2019-06-20T06:57:58.657Z,76.81
2019-06-20T07:04:44.294Z,76.47
2019-06-20T07:07:59.647Z,76.82
2019-06-20T07:11:14.770Z,75.32
2019-06-20T07:14:30.754Z,74.75
2019-06-20T07:17:45.744Z,73.75
2019-06-20T07:21:00.972Z,74.72
2019-06-20T07:24:16.461Z,74.55
2019-06-20T07:27:31.573Z,73.71
2019-06-20T07:30:47.031Z,73.48
2019-06-20T07:34:03.343Z,73.35
2019-06-20T07:37:19.092Z,73.33
2019-06-20T07:40:34.237Z,73.39
2019-06-20T07:43:49.899Z,72.76
2019-06-20T07:47:17.058Z,73.41
2019-06-20T07:50:23.428Z,73.02
2019-06-20T07:53:39.746Z,71.56
2019-06-20T07:57:15.695Z,71.65
2019-06-20T08:00:31.351Z,70.12
2019-06-20T08:03:47.176Z,70.97
2019-06-20T08:07:02.794Z,70.68
2019-06-20T08:10:17.914Z,68.84
2019-06-20T08:13:33.283Z,68.42
2019-06-20T08:16:49.112Z,66.99
2019-06-20T08:20:04.613Z,67.89
2019-06-20T08:23:19.719Z,66.44
2019-06-20T08:26:34.847Z,67.65
2019-06-20T08:29:50.680Z,67.11
2019-06-20T08:33:11.510Z,66.14
2019-06-20T08:36:23.202Z,65.45
2019-06-20T08:39:38.684Z,64.46
2019-06-20T08:42:53.689Z,64.55
2019-06-20T08:46:10.393Z,64.20
2019-06-20T08:49:25.969Z,64.97
2019-06-20T08:52:41.575Z,65.48
2019-06-20T08:55:59.277Z,65.53
2019-06-20T08:59:24.365Z,65.46
2019-06-20T09:02:34.136Z,63.54
2019-06-20T09:05:50.345Z,62.68
2019-06-20T09:09:07.137Z,61.98
2019-06-20T09:12:22.380Z,62.18
2019-06-20T09:15:37.619Z,62.32
2019-06-20T09:18:53.750Z,62.31
2019-06-20T09:22:10.405Z,62.27
2019-06-20T09:25:25.870Z,60.72
2019-06-20T09:28:41.686Z,60.93
2019-06-20T09:31:58.419Z,61.53
2019-06-20T09:35:14.331Z,63.29
2019-06-20T09:38:29.841Z,61.01
2019-06-20T09:41:45.212Z,60.69
2019-06-20T09:45:02.949Z,60.16
2019-06-20T09:48:19.287Z,59.06
2019-06-20T09:51:34.976Z,59.11
2019-06-20T09:54:50.248Z,59.99
2019-06-20T09:58:05.734Z,60.79
2019-06-20T10:01:20.942Z,58.99
2019-06-20T10:04:36.330Z,58.33
2019-06-20T10:07:52.431Z,56.94
2019-06-20T10:11:08.585Z,58.35
2019-06-20T10:14:24.435Z,59.05
2019-06-20T10:17:39.578Z,58.95
2019-06-20T10:20:54.829Z,57.67
2019-06-20T10:24:10.192Z,55.73
2019-06-20T10:27:25.533Z,55.80
2019-06-20T10:30:41.653Z,56.37
2019-06-20T10:33:57.458Z,57.20
2019-06-20T10:37:12.556Z,57.90
2019-06-20T10:40:27.830Z,55.95
2019-06-20T10:43:44.687Z,55.36
2019-06-20T10:47:01.909Z,55.14
2019-06-20T10:50:17.413Z,53.22
2019-06-20T10:53:32.512Z,54.35
2019-06-20T10:56:48.847Z,55.80
2019-06-20T11:00:07.075Z,55.33
2019-06-20T11:03:22.672Z,57.13
2019-06-20T11:06:39.915Z,57.59
2019-06-20T11:09:55.705Z,56.47
2019-06-20T11:13:11.046Z,54.21
2019-06-20T11:16:26.406Z,55.87
2019-06-20T11:19:41.675Z,56.01
2019-06-20T11:22:57.250Z,54.81
2019-06-20T11:26:13.326Z,55.18
2019-06-20T11:29:28.690Z,54.33
2019-06-20T11:32:45.800Z,54.78
2019-06-20T11:36:01.448Z,54.15
2019-06-20T11:39:16.813Z,53.57
2019-06-20T11:42:32.289Z,54.47
2019-06-20T11:45:47.538Z,55.17
2019-06-20T11:49:03.255Z,55.10
2019-06-20T11:52:18.494Z,55.37
2019-06-20T11:55:34.818Z,56.77
2019-06-20T11:58:50.061Z,53.91
2019-06-20T12:02:07.339Z,55.95
2019-06-20T12:05:22.821Z,55.67
2019-06-20T12:08:39.125Z,55.57
2019-06-20T12:11:54.874Z,54.70
2019-06-20T12:16:48.676Z,54.54
2019-06-20T12:20:04.228Z,51.63
2019-06-20T12:23:19.357Z,50.89
2019-06-20T12:26:34.837Z,51.71
2019-06-20T12:29:50.194Z,51.29
2019-06-20T12:33:05.793Z,53.01
2019-06-20T12:36:21.040Z,52.16
2019-06-20T12:39:38.668Z,54.51
2019-06-20T12:42:54.157Z,56.11
2019-06-20T12:46:09.775Z,62.68
2019-06-20T12:49:25.243Z,67.37
2019-06-20T12:52:42.633Z,68.86
2019-06-20T12:55:58.866Z,68.40
2019-06-20T12:59:15.541Z,68.78
2019-06-20T13:02:31.135Z,68.29
2019-06-20T13:05:47.089Z,66.40
2019-06-20T13:09:04.381Z,66.91
2019-06-20T13:12:19.754Z,65.37
2019-06-20T13:15:35.216Z,63.67
2019-06-20T13:18:51.907Z,61.18
2019-06-20T13:22:07.142Z,61.27
2019-06-20T13:25:22.872Z,59.10
2019-06-20T13:28:58.546Z,57.03
2019-06-20T13:32:04.005Z,58.92
2019-06-20T13:35:13.973Z,56.54
2019-06-20T13:38:30.069Z,55.89
2019-06-20T13:41:45.791Z,57.24
2019-06-20T13:45:01.282Z,57.46
2019-06-20T13:48:16.875Z,56.03
2019-06-20T13:51:32.361Z,54.96
2019-06-20T13:54:48.321Z,54.90
2019-06-20T13:58:03.448Z,52.78
2019-06-20T14:01:18.714Z,51.62
2019-06-20T14:04:34.283Z,51.28
2019-06-20T14:07:53.347Z,51.61
2019-06-20T14:11:07.522Z,52.13
2019-06-20T14:14:23.004Z,52.79
2019-06-20T14:17:38.610Z,48.51
2019-06-20T14:20:55.224Z,48.51
2019-06-20T14:24:11.248Z,48.80
2019-06-20T14:27:26.844Z,48.80
2019-06-20T14:30:43.204Z,49.04
2019-06-20T14:33:59.373Z,51.35
2019-06-20T14:37:14.719Z,52.24
2019-06-20T14:40:30.226Z,52.45
2019-06-20T14:43:46.168Z,53.01
2019-06-20T14:47:02.987Z,53.03
2019-06-20T14:50:18.698Z,54.07
2019-06-20T14:53:34.040Z,52.90
2019-06-20T14:56:49.746Z,52.29
2019-06-20T15:00:07.219Z,53.66
2019-06-20T15:03:23.274Z,53.43
2019-06-20T15:06:39.258Z,54.13
2019-06-20T15:09:55.306Z,52.30
2019-06-20T15:13:10.538Z,52.48
2019-06-20T15:16:25.794Z,50.65
2019-06-20T15:19:41.159Z,51.79
2019-06-20T15:22:56.934Z,51.33
2019-06-20T15:26:12.620Z,49.30
2019-06-20T15:29:28.441Z,49.98
2019-06-20T15:32:55.685Z,47.66
2019-06-20T15:36:01.323Z,47.67
2019-06-20T15:39:19.570Z,46.16
2019-06-20T15:42:34.925Z,47.41
2019-06-20T15:45:51.995Z,47.14
2019-06-20T15:49:15.629Z,46.54
2019-06-20T15:52:24.856Z,45.90
2019-06-20T15:55:41.728Z,46.87
2019-06-20T15:58:57.121Z,46.68
2019-06-20T16:02:12.626Z,46.76
2019-06-20T16:05:28.218Z,45.12
2019-06-20T16:08:43.374Z,44.73
2019-06-20T16:11:59.058Z,44.73
2019-06-20T16:15:21.411Z,43.19
2019-06-20T16:18:36.861Z,43.86
2019-06-20T16:21:53.668Z,44.39
2019-06-20T16:25:08.677Z,45.50
2019-06-20T16:28:26.081Z,47.62
2019-06-20T16:31:41.310Z,45.93
2019-06-20T16:34:57.033Z,46.57
2019-06-20T16:38:12.390Z,45.94
2019-06-20T16:41:27.646Z,47.17
2019-06-20T16:44:42.759Z,48.57
2019-06-20T16:47:58.480Z,47.51
2019-06-20T16:51:13.613Z,47.81
2019-06-20T16:54:28.730Z,45.60
2019-06-20T16:57:43.988Z,45.60
2019-06-20T17:00:59.322Z,46.43
2019-06-20T17:04:15.165Z,44.62
2019-06-20T17:07:30.413Z,46.42
2019-06-20T17:10:45.662Z,46.22
2019-06-20T17:14:20.329Z,47.64
2019-06-20T17:17:55.736Z,47.32
2019-06-20T17:21:10.863Z,47.61
2019-06-20T17:24:27.553Z,49.78
2019-06-20T17:27:42.903Z,50.29
2019-06-20T17:30:58.632Z,49.34
2019-06-20T17:34:13.766Z,50.45
2019-06-20T17:37:29.108Z,50.93
2019-06-20T17:40:44.479Z,49.40
2019-06-20T17:43:59.939Z,50.73
2019-06-20T17:47:15.666Z,50.50
2019-06-20T17:50:31.656Z,51.69
2019-06-20T17:53:49.610Z,51.66
2019-06-20T17:57:04.180Z,52.20
2019-06-20T18:00:20.617Z,52.56
2019-06-20T18:03:37.512Z,53.01
2019-06-20T18:06:54.914Z,52.39
2019-06-20T18:10:13.525Z,53.98
2019-06-20T18:13:29.356Z,56.09
2019-06-20T18:16:44.474Z,57.39
2019-06-20T18:19:59.975Z,56.78
2019-06-20T18:23:15.086Z,57.21
2019-06-20T18:26:30.214Z,57.39
2019-06-20T18:29:47.485Z,57.74
2019-06-20T18:33:03.481Z,57.26
2019-06-20T18:36:18.808Z,57.57
2019-06-20T18:39:34.772Z,58.75
2019-06-20T18:42:50.649Z,58.96
2019-06-20T18:46:06.108Z,59.84
2019-06-20T18:49:21.334Z,58.30
2019-06-20T18:52:50.890Z,59.27
2019-06-20T18:55:53.644Z,59.65
2019-06-20T18:59:09.708Z,60.21
2019-06-20T19:02:25.473Z,60.33
2019-06-20T19:05:41.143Z,61.65
2019-06-20T19:08:56.381Z,62.02
2019-06-20T19:12:12.360Z,61.75
2019-06-20T19:15:27.582Z,62.72
2019-06-20T19:18:43.909Z,63.16
2019-06-20T19:21:59.962Z,63.53
2019-06-20T19:25:15.365Z,64.30
2019-06-20T19:28:30.723Z,64.49
2019-06-20T19:31:45.777Z,65.06
2019-06-20T19:35:02.789Z,65.32
2019-06-20T19:38:18.604Z,65.47
2019-06-20T19:41:33.597Z,65.65
2019-06-20T19:44:48.723Z,66.20
2019-06-20T19:48:04.897Z,65.87
2019-06-20T19:51:20.289Z,66.34
2019-06-20T19:54:35.377Z,67.31
2019-06-20T19:57:50.402Z,67.22
2019-06-20T20:01:06.637Z,67.64
2019-06-20T20:04:22.181Z,68.17
2019-06-20T20:07:37.424Z,68.49
2019-06-20T20:10:52.666Z,68.00
2019-06-20T20:14:08.287Z,68.58
2019-06-20T20:17:23.531Z,68.70
2019-06-20T20:20:38.781Z,69.14
2019-06-20T20:23:54.852Z,68.96
2019-06-20T20:27:10.110Z,69.13
2019-06-20T20:30:25.465Z,69.10
2019-06-20T20:33:40.699Z,69.19
2019-06-20T20:36:56.297Z,69.01
2019-06-20T20:40:11.423Z,69.66
2019-06-20T20:43:27.619Z,70.19
2019-06-20T20:46:44.161Z,69.90
2019-06-20T20:49:59.544Z,70.31
2019-06-20T20:53:14.789Z,70.68
2019-06-20T20:56:29.885Z,71.05
2019-06-20T20:59:45.486Z,71.07
2019-06-20T21:03:01.978Z,71.69
2019-06-20T21:06:18.036Z,71.53
2019-06-20T21:09:33.634Z,70.80
2019-06-20T21:16:47.793Z,71.35
2019-06-20T21:20:03.767Z,72.27
2019-06-20T21:23:19.961Z,73.03
2019-06-20T21:26:49.062Z,73.16
2019-06-20T21:29:53.323Z,72.70
2019-06-20T21:33:09.298Z,73.43
2019-06-20T21:36:24.411Z,73.90
2019-06-20T21:39:39.769Z,73.89
2019-06-20T21:42:55.006Z,74.40
2019-06-20T21:46:10.270Z,74.82
2019-06-20T21:49:25.372Z,74.47
2019-06-20T21:52:40.375Z,75.23
2019-06-20T21:55:55.855Z,75.55
2019-06-20T21:59:11.094Z,75.35
2019-06-20T22:02:27.274Z,74.69
2019-06-20T22:05:42.895Z,75.11
2019-06-20T22:08:58.504Z,75.99
2019-06-20T22:12:13.837Z,76.71
2019-06-20T22:15:28.981Z,76.49
2019-06-20T22:18:44.821Z,76.71
2019-06-20T22:22:00.070Z,76.80
2019-06-20T22:25:15.523Z,76.74
2019-06-20T22:28:30.669Z,76.82
2019-06-20T22:31:45.908Z,77.53
2019-06-20T22:35:01.128Z,78.10
2019-06-20T22:38:16.390Z,77.77
2019-06-20T22:41:31.722Z,77.89
2019-06-20T22:44:46.986Z,78.08
2019-06-20T22:48:03.893Z,78.22
2019-06-20T22:51:19.494Z,78.50
2019-06-20T22:54:34.501Z,78.88
2019-06-20T22:57:50.238Z,78.74
2019-06-20T23:01:05.607Z,78.53
2019-06-20T23:04:20.578Z,78.48
2019-06-20T23:07:35.961Z,78.67
2019-06-20T23:10:51.301Z,78.32
2019-06-20T23:14:06.565Z,78.76
2019-06-20T23:17:23.008Z,78.44
2019-06-20T23:20:38.489Z,78.23
2019-06-20T23:23:54.357Z,78.09
2019-06-20T23:27:09.810Z,78.36
2019-06-20T23:30:24.822Z,78.39
2019-06-20T23:33:40.180Z,78.32
2019-06-20T23:37:08.665Z,77.98
2019-06-20T23:40:14.861Z,77.94
2019-06-20T23:43:30.223Z,78.48
2019-06-20T23:46:45.676Z,78.70
2019-06-20T23:50:02.156Z,78.80
2019-06-20T23:53:21.463Z,78.66
2019-06-20T23:56:36.837Z,78.59
2019-06-20T23:59:52.073Z,78.87
